Time;durP1;ratioP1;P1;durP2;ratioP2;P2;SDS_P1;SDS_P2;PMS_P1;PMS_P2;Temp;Humidity;BMP_temperature;BMP_pressure;BME280_temperature;BME280_humidity;BME280_pressure;Samples;Min_cycle;Max_cycle;Signal;HPM_P1;HPM_P2
2022/10/07 00:00:49;;;;;;;8.87;6.67;;;;;;;13.52;66.08;100559.47;5088931;28;20195;-76
2022/10/07 00:03:18;;;;;;;12.33;7.47;;;;;;;13.47;66.61;100564.56;5088851;28;20243;-76
2022/10/07 00:05:45;;;;;;;14.63;7.47;;;;;;;13.36;66.39;100567.72;5088836;28;20280;-75
2022/10/07 00:08:12;;;;;;;9.37;7.30;;;;;;;13.29;66.97;100558.81;5088677;28;20627;-75
2022/10/07 00:10:41;;;;;;;9.57;6.57;;;;;;;13.22;67.10;100549.91;5088888;28;20235;-76
2022/10/07 00:13:08;;;;;;;10.33;6.83;;;;;;;13.23;67.05;100564.88;5088659;28;20195;-75
2022/10/07 00:15:35;;;;;;;8.20;6.83;;;;;;;13.07;67.42;100541.09;5088822;28;20260;-76
2022/10/07 00:18:02;;;;;;;9.53;6.57;;;;;;;13.24;67.01;100569.19;5089270;28;20196;-76
2022/10/07 00:20:30;;;;;;;14.33;6.67;;;;;;;13.26;66.67;100566.34;5088744;28;20195;-75
2022/10/07 00:22:58;;;;;;;12.67;6.80;;;;;;;13.28;67.16;100567.81;5075290;28;20192;-76
2022/10/07 00:25:24;;;;;;;7.63;6.93;;;;;;;13.31;66.59;100574.66;5075029;28;20184;-75
2022/10/07 00:27:51;;;;;;;12.80;7.57;;;;;;;13.29;66.59;100572.16;5074886;28;20648;-76
2022/10/07 00:30:18;;;;;;;14.67;7.70;;;;;;;13.28;66.94;100570.50;5075344;28;20273;-76
2022/10/07 00:32:45;;;;;;;7.97;6.73;;;;;;;13.26;67.15;100575.19;5074731;28;20199;-75
2022/10/07 00:35:11;;;;;;;10.47;7.33;;;;;;;13.23;67.18;100578.22;5074914;28;20188;-76
2022/10/07 00:37:41;;;;;;;8.87;7.40;;;;;;;13.23;67.48;100578.22;5074835;28;20713;-75
2022/10/07 00:40:11;;;;;;;10.07;7.37;;;;;;;13.17;67.34;100580.81;5074668;28;20203;-75
2022/10/07 00:42:38;;;;;;;10.27;7.00;;;;;;;13.14;67.99;100579.34;5074945;28;20184;-74
2022/10/07 00:45:06;;;;;;;11.27;6.40;;;;;;;13.10;68.59;100580.75;5074645;28;20191;-74
2022/10/07 00:47:34;;;;;;;7.73;7.00;;;;;;;13.01;69.03;100579.19;5074237;28;20663;-75
2022/10/07 00:50:04;;;;;;;6.77;6.17;;;;;;;12.92;68.71;100574.94;5074460;28;20629;-74
2022/10/07 00:52:34;;;;;;;9.77;6.03;;;;;;;12.72;69.22;100552.50;5074770;28;20273;-77
2022/10/07 00:55:07;;;;;;;9.73;6.70;;;;;;;12.67;68.54;100570.06;5075070;28;20192;-76
2022/10/07 00:57:36;;;;;;;9.23;7.37;;;;;;;12.55;68.33;100572.34;5074647;28;20529;-80
2022/10/07 01:00:05;;;;;;;12.20;8.03;;;;;;;12.46;68.93;100572.63;5074223;28;20200;-77
2022/10/07 01:02:32;;;;;;;8.90;7.47;;;;;;;12.30;68.68;100576.28;5074426;28;20192;-76
2022/10/07 01:05:02;;;;;;;14.27;7.33;;;;;;;12.22;68.84;100571.00;5074720;28;20245;-76
2022/10/07 01:07:29;;;;;;;12.63;7.17;;;;;;;12.19;69.60;100570.53;5074095;28;20196;-78
2022/10/07 01:09:58;;;;;;;8.07;7.27;;;;;;;12.00;69.78;100577.19;5074197;28;20759;-77
2022/10/07 01:12:36;;;;;;;11.13;7.70;;;;;;;11.86;70.74;100574.47;5074380;28;20336;-77
2022/10/07 01:15:10;;;;;;;10.40;8.07;;;;;;;11.81;70.81;100569.69;5074127;28;20666;-78
2022/10/07 01:17:41;;;;;;;9.00;7.30;;;;;;;11.67;71.48;100551.81;5074372;28;20199;-77
2022/10/07 01:20:26;;;;;;;10.10;7.90;;;;;;;11.75;71.73;100567.72;5074222;28;20194;-77
2022/10/07 01:23:09;;;;;;;10.27;7.07;;;;;;;11.73;71.37;100572.41;5074793;28;20194;-77
2022/10/07 01:25:54;;;;;;;13.87;7.43;;;;;;;11.65;71.41;100564.47;5074385;28;20574;-77
2022/10/07 01:28:28;;;;;;;12.17;7.67;;;;;;;11.59;71.53;100556.34;5074232;28;20282;-75
2022/10/07 01:31:00;;;;;;;10.47;7.50;;;;;;;11.49;71.91;100561.03;5073686;28;20207;-75
2022/10/07 01:33:31;;;;;;;14.03;7.10;;;;;;;11.46;72.43;100564.88;5072531;28;20244;-76
2022/10/07 01:36:06;;;;;;;15.60;8.03;;;;;;;11.35;72.62;100564.47;5073715;28;20740;-76
2022/10/07 01:38:36;;;;;;;13.27;7.83;;;;;;;11.40;72.00;100559.44;5073788;28;20275;-76
2022/10/07 01:41:08;;;;;;;8.33;6.97;;;;;;;11.35;73.00;100551.97;5073675;28;20197;-76
2022/10/07 01:43:38;;;;;;;7.93;6.50;;;;;;;11.41;72.40;100548.63;5073965;28;20190;-76
2022/10/07 01:46:10;;;;;;;11.63;7.13;;;;;;;11.46;72.75;100546.25;5073848;28;20189;-76
2022/10/07 01:48:37;;;;;;;9.77;6.43;;;;;;;11.41;71.96;100531.81;5073799;28;20183;-75
2022/10/07 01:51:06;;;;;;;17.20;7.20;;;;;;;11.62;72.26;100550.66;5073478;28;20222;-75
2022/10/07 01:53:44;;;;;;;8.57;6.77;;;;;;;11.69;72.01;100547.16;5072916;28;20199;-75
2022/10/07 01:56:29;;;;;;;13.77;7.50;;;;;;;11.68;72.18;100544.66;5073598;28;20260;-75
2022/10/07 01:59:19;;;;;;;11.23;7.00;;;;;;;11.69;72.33;100551.63;5072770;28;20209;-76
2022/10/07 02:01:53;;;;;;;11.37;6.10;;;;;;;11.68;72.31;100552.66;5073308;28;20255;-79
2022/10/07 02:04:40;;;;;;;8.53;6.57;;;;;;;11.77;72.35;100555.06;5073027;28;20184;-79
2022/10/07 02:07:19;;;;;;;11.13;7.07;;;;;;;11.80;72.22;100553.88;5074615;28;20251;-79
2022/10/07 02:09:51;;;;;;;15.57;5.90;;;;;;;11.81;72.26;100551.06;5073355;28;20661;-79
2022/10/07 02:12:23;;;;;;;7.70;6.93;;;;;;;11.89;72.59;100556.31;5073644;28;20217;-78
2022/10/07 02:14:56;;;;;;;10.23;5.63;;;;;;;11.94;71.87;100551.28;5073005;28;20264;-78
2022/10/07 02:17:25;;;;;;;9.50;6.40;;;;;;;11.88;71.51;100554.63;5073342;28;20224;-78
2022/10/07 02:19:55;;;;;;;7.43;6.63;;;;;;;11.79;71.31;100558.38;5072868;28;20713;-78
2022/10/07 02:22:27;;;;;;;9.27;6.30;;;;;;;11.78;71.71;100548.75;5073199;28;20197;-78
2022/10/07 02:24:57;;;;;;;6.93;6.23;;;;;;;11.84;72.07;100547.19;5072994;28;20247;-76
2022/10/07 02:27:28;;;;;;;6.93;6.37;;;;;;;11.86;71.96;100550.50;5072595;28;20194;-74
2022/10/07 02:30:02;;;;;;;7.13;6.53;;;;;;;11.81;71.85;100548.38;5072817;28;20186;-75
2022/10/07 02:32:31;;;;;;;11.20;6.47;;;;;;;11.70;72.45;100548.78;5073044;28;20555;-75
2022/10/07 02:35:04;;;;;;;6.47;5.87;;;;;;;11.70;72.80;100543.47;5072104;28;20194;-75
2022/10/07 02:37:35;;;;;;;10.13;5.53;;;;;;;11.67;72.76;100551.00;5073052;28;20640;-75
2022/10/07 02:40:02;;;;;;;5.73;5.23;;;;;;;11.55;72.82;100539.88;5072529;28;20195;-76
2022/10/07 02:42:35;;;;;;;6.47;5.80;;;;;;;11.51;73.34;100541.22;5072303;28;20287;-74
2022/10/07 02:45:12;;;;;;;8.57;5.57;;;;;;;11.56;73.00;100530.88;5071877;28;20190;-74
2022/10/07 02:47:43;;;;;;;5.63;5.13;;;;;;;11.59;72.94;100535.06;5072992;28;20187;-80
2022/10/07 02:50:14;;;;;;;6.80;4.90;;;;;;;11.47;72.88;100542.59;5073247;28;20612;-77
2022/10/07 02:52:43;;;;;;;6.77;4.67;;;;;;;11.41;72.94;100537.97;5072154;28;20801;-75
2022/10/07 02:55:15;;;;;;;5.20;4.80;;;;;;;11.41;73.00;100543.31;5072675;28;20662;-76
2022/10/07 02:57:46;;;;;;;7.87;4.70;;;;;;;11.47;72.20;100550.56;5072788;28;20273;-75
2022/10/07 03:00:15;;;;;;;5.43;4.43;;;;;;;11.41;71.87;100542.47;5071855;28;20657;-75
2022/10/07 03:02:49;;;;;;;5.33;4.37;;;;;;;11.40;71.86;100552.31;5072532;28;20571;-76
2022/10/07 03:05:18;;;;;;;5.30;4.73;;;;;;;11.38;72.03;100551.63;5072424;28;20190;-76
2022/10/07 03:07:45;;;;;;;7.63;4.30;;;;;;;11.44;71.51;100553.59;5072016;28;20724;-75
2022/10/07 03:10:12;;;;;;;4.57;4.17;;;;;;;11.56;71.35;100557.50;5071952;28;20230;-76
2022/10/07 03:12:39;;;;;;;8.40;4.57;;;;;;;11.65;70.99;100560.97;5073107;28;20222;-76
2022/10/07 03:15:07;;;;;;;6.87;4.50;;;;;;;11.75;70.46;100567.72;5072100;28;20559;-76
2022/10/07 03:17:35;;;;;;;4.27;3.87;;;;;;;11.83;70.16;100572.16;5071905;28;20196;-75
2022/10/07 03:20:01;;;;;;;7.37;3.53;;;;;;;11.81;70.45;100567.03;5071766;28;20199;-75
2022/10/07 03:22:29;;;;;;;6.03;4.60;;;;;;;11.83;69.97;100570.31;5072113;28;20199;-76
2022/10/07 03:24:55;;;;;;;11.40;4.60;;;;;;;11.86;69.85;100574.47;5071909;28;20560;-76
2022/10/07 03:27:22;;;;;;;4.70;4.30;;;;;;;11.86;70.12;100559.31;5072516;28;20199;-75
2022/10/07 03:29:49;;;;;;;5.63;4.10;;;;;;;11.91;69.49;100572.94;5071838;28;20192;-74
2022/10/07 03:32:16;;;;;;;4.10;3.67;;;;;;;11.94;69.50;100561.94;5071922;28;20675;-77
2022/10/07 03:34:44;;;;;;;8.10;3.80;;;;;;;11.96;69.40;100559.91;5071889;28;20195;-75
2022/10/07 03:37:11;;;;;;;4.67;3.80;;;;;;;11.98;69.84;100557.91;5072723;28;20553;-76
2022/10/07 03:39:37;;;;;;;4.67;4.27;;;;;;;11.91;69.27;100567.59;5072051;28;20189;-76
2022/10/07 03:42:04;;;;;;;3.90;3.60;;;;;;;11.92;69.66;100566.59;5072482;28;20198;-76
2022/10/07 03:44:31;;;;;;;4.37;3.83;;;;;;;11.95;69.28;100568.91;5071718;28;20195;-76
2022/10/07 03:46:58;;;;;;;4.77;4.33;;;;;;;11.99;69.23;100570.19;5072113;28;20708;-77
2022/10/07 03:49:24;;;;;;;6.27;4.47;;;;;;;12.05;69.07;100569.47;5072217;28;20195;-77
2022/10/07 03:51:52;;;;;;;10.90;4.53;;;;;;;12.07;68.83;100556.81;5071492;28;20282;-75
2022/10/07 03:54:20;;;;;;;7.10;4.00;;;;;;;12.03;69.19;100550.19;5071690;28;20251;-75
2022/10/07 03:56:46;;;;;;;10.67;4.10;;;;;;;12.10;69.05;100563.63;5072415;28;20658;-75
2022/10/07 03:59:13;;;;;;;26.23;5.10;;;;;;;12.09;68.72;100562.78;5075054;28;20252;-75
2022/10/07 04:01:40;;;;;;;7.20;4.33;;;;;;;12.08;68.96;100562.97;5075477;28;20279;-76
2022/10/07 04:04:07;;;;;;;12.03;4.40;;;;;;;12.07;68.91;100555.97;5075262;28;20728;-76
2022/10/07 04:06:35;;;;;;;11.50;4.63;;;;;;;12.08;68.94;100576.31;5075795;28;20196;-76
2022/10/07 04:09:04;;;;;;;18.57;5.30;;;;;;;12.08;68.95;100563.78;5075118;28;20806;-77
2022/10/07 04:11:30;;;;;;;12.87;4.20;;;;;;;12.07;69.06;100578.13;5075743;28;20238;-78
2022/10/07 04:13:59;;;;;;;33.97;7.60;;;;;;;12.07;69.28;100582.59;5074824;28;20198;-78
2022/10/07 04:16:27;;;;;;;7.77;4.27;;;;;;;12.01;68.98;100578.81;5075149;28;20229;-77
2022/10/07 04:18:55;;;;;;;10.87;4.47;;;;;;;11.92;69.09;100579.91;5075180;28;20195;-77
2022/10/07 04:21:22;;;;;;;10.97;5.03;;;;;;;11.80;69.32;100578.66;5075102;28;20638;-77
2022/10/07 04:23:49;;;;;;;7.87;4.73;;;;;;;11.77;70.28;100573.72;5074596;28;20186;-78
2022/10/07 04:26:17;;;;;;;6.20;4.57;;;;;;;11.68;70.60;100576.59;5074355;28;20671;-77
2022/10/07 04:28:44;;;;;;;13.43;4.97;;;;;;;11.64;70.70;100575.28;5074726;28;20255;-77
2022/10/07 04:31:11;;;;;;;14.40;5.00;;;;;;;11.58;70.28;100565.31;5074572;28;20771;-77
2022/10/07 04:33:39;;;;;;;5.57;5.00;;;;;;;11.59;70.44;100566.97;5075219;28;20242;-76
2022/10/07 04:36:08;;;;;;;14.03;5.97;;;;;;;11.51;70.22;100572.34;5074919;28;20275;-76
2022/10/07 04:38:35;;;;;;;14.70;4.33;;;;;;;11.04;70.22;100530.69;5075016;28;20195;-76
2022/10/07 04:41:04;;;;;;;28.43;5.40;;;;;;;11.22;70.51;100578.31;5074294;28;20197;-75
2022/10/07 04:43:33;;;;;;;12.37;4.87;;;;;;;11.12;71.38;100577.72;5073850;28;20197;-77
2022/10/07 04:46:03;;;;;;;33.10;6.87;;;;;;;11.13;71.16;100571.38;5074337;28;20286;-75
2022/10/07 04:48:30;;;;;;;15.80;5.20;;;;;;;11.25;71.19;100579.78;5074624;28;20197;-75
2022/10/07 04:51:01;;;;;;;7.90;4.93;;;;;;;11.28;71.15;100584.78;5074446;28;20194;-76
2022/10/07 04:53:27;;;;;;;11.80;5.00;;;;;;;11.37;70.89;100589.88;5074079;28;20242;-74
2022/10/07 04:55:55;;;;;;;35.07;5.90;;;;;;;11.44;70.70;100585.53;5074130;28;20195;-74
2022/10/07 04:58:21;;;;;;;25.87;5.63;;;;;;;11.50;70.34;100592.81;5074386;28;20284;-75
2022/10/07 05:00:52;;;;;;;18.63;6.40;;;;;;;11.56;70.21;100597.41;5074615;28;20194;-77
2022/10/07 05:03:21;;;;;;;11.40;5.47;;;;;;;11.64;70.20;100594.72;5074820;28;20595;-76
2022/10/07 05:05:50;;;;;;;25.87;6.60;;;;;;;11.65;69.46;100599.06;5073762;28;20198;-76
2022/10/07 05:08:18;;;;;;;16.80;5.37;;;;;;;11.63;69.70;100601.06;5073635;28;20755;-76
2022/10/07 05:10:46;;;;;;;13.50;4.93;;;;;;;11.64;69.53;100602.72;5073751;28;20226;-77
2022/10/07 05:13:15;;;;;;;26.13;6.27;;;;;;;11.83;69.49;100599.59;5073722;28;20272;-78
2022/10/07 05:15:48;;;;;;;15.87;5.63;;;;;;;11.93;68.72;100597.56;5071448;28;20217;-78
2022/10/07 05:18:17;;;;;;;16.13;5.03;;;;;;;11.84;68.51;100603.09;5074136;28;20197;-79
2022/10/07 05:20:45;;;;;;;30.80;6.60;;;;;;;11.81;69.04;100614.94;5074223;28;20615;-78
2022/10/07 05:23:12;;;;;;;29.00;6.10;;;;;;;12.00;68.83;100613.66;5074102;28;20198;-80
2022/10/07 05:25:39;;;;;;;20.27;8.90;;;;;;;12.33;67.72;100623.03;5073878;28;20253;-78
2022/10/07 05:28:05;;;;;;;20.60;9.40;;;;;;;12.87;66.25;100625.31;5072714;28;20202;-80
2022/10/07 05:30:32;;;;;;;14.53;6.47;;;;;;;13.35;63.49;100630.13;5073572;28;20674;-83
2022/10/07 05:33:00;;;;;;;10.80;4.63;;;;;;;13.67;62.53;100635.03;5074624;28;20233;-76
2022/10/07 05:35:28;;;;;;;6.83;4.37;;;;;;;14.08;60.61;100628.06;5074161;28;20287;-82
2022/10/07 05:37:55;;;;;;;12.23;3.87;;;;;;;14.41;59.23;100639.94;5073619;28;20659;-77
2022/10/07 05:40:21;;;;;;;8.90;4.90;;;;;;;14.64;58.15;100650.41;5072582;28;20273;-78
2022/10/07 05:42:48;;;;;;;9.30;4.13;;;;;;;14.73;57.33;100647.38;5073475;28;20196;-80
2022/10/07 05:45:15;;;;;;;15.00;5.93;;;;;;;14.83;57.41;100649.72;5073307;28;20290;-77
2022/10/07 05:47:42;;;;;;;12.13;6.07;;;;;;;15.03;56.75;100646.16;5073680;28;20192;-75
2022/10/07 05:50:09;;;;;;;15.30;5.53;;;;;;;15.39;56.37;100646.78;5072975;28;20618;-70
2022/10/07 05:52:38;;;;;;;11.20;5.17;;;;;;;16.02;54.93;100648.25;5073095;28;20216;-67
2022/10/07 05:55:05;;;;;;;11.20;5.23;;;;;;;16.64;52.93;100653.28;5073994;28;20192;-67
2022/10/07 05:57:33;;;;;;;8.70;4.57;;;;;;;17.22;50.62;100658.59;5072736;28;20830;-67
2022/10/07 06:00:03;;;;;;;20.10;4.13;;;;;;;18.01;52.01;100653.75;5072578;28;20664;-69
2022/10/07 06:02:30;;;;;;;13.03;3.93;;;;;;;18.37;47.70;100657.47;5072849;28;20195;-71
2022/10/07 06:04:56;;;;;;;8.23;3.07;;;;;;;18.58;45.80;100661.66;5073308;28;20258;-72
2022/10/07 06:07:24;;;;;;;11.47;3.67;;;;;;;18.79;45.34;100661.28;5071974;28;20713;-63
2022/10/07 06:15:21;;;;;;;3.77;3.40;;;;;;;19.47;42.42;100658.31;5072950;28;20694;-62
2022/10/07 06:17:48;;;;;;;7.73;3.60;;;;;;;20.19;42.13;100654.69;5072356;28;20209;-62
2022/10/07 06:20:15;;;;;;;6.57;3.73;;;;;;;20.89;41.06;100658.31;5072234;28;20253;-64
2022/10/07 06:22:43;;;;;;;7.27;3.20;;;;;;;21.71;39.51;100648.06;5072613;28;20196;-62
2022/10/07 06:25:11;;;;;;;6.47;3.30;;;;;;;22.04;36.12;100642.75;5072181;28;20188;-62
2022/10/07 06:27:37;;;;;;;5.53;2.80;;;;;;;21.80;36.50;100635.78;5072558;28;20279;-63
2022/10/07 06:30:06;;;;;;;7.13;3.00;;;;;;;21.67;36.77;100633.31;5071332;28;20195;-63
2022/10/07 06:32:33;;;;;;;8.23;3.60;;;;;;;21.78;38.56;100632.50;5071540;28;20779;-65
2022/10/07 06:34:59;;;;;;;5.47;3.07;;;;;;;21.86;36.62;100640.25;5072100;28;20664;-65
2022/10/07 06:37:29;;;;;;;4.17;3.10;;;;;;;22.24;37.56;100639.56;5072551;28;20195;-65
2022/10/07 06:39:56;;;;;;;10.03;3.17;;;;;;;22.14;36.52;100634.00;5071989;28;20733;-65
2022/10/07 06:42:24;;;;;;;60.23;6.73;;;;;;;22.42;36.87;100637.47;5072409;28;20199;-65
2022/10/07 06:44:52;;;;;;;7.07;2.77;;;;;;;22.74;35.72;100638.56;5072321;28;20204;-65
2022/10/07 06:47:19;;;;;;;6.50;3.00;;;;;;;23.13;34.29;100634.84;5072276;28;20203;-65
2022/10/07 06:49:46;;;;;;;3.33;2.63;;;;;;;22.90;34.41;100631.47;5072386;28;20283;-65
2022/10/07 06:52:13;;;;;;;8.87;2.77;;;;;;;22.72;34.94;100643.44;5071846;28;20703;-65
2022/10/07 06:54:39;;;;;;;25.53;4.13;;;;;;;22.89;34.86;100624.44;5071905;28;20245;-66
2022/10/07 06:57:06;;;;;;;9.30;2.90;;;;;;;23.35;34.38;100632.97;5072001;28;20808;-66
2022/10/07 06:59:34;;;;;;;26.83;4.63;;;;;;;23.98;33.29;100630.50;5071941;28;20204;-64
2022/10/07 07:02:01;;;;;;;6.70;2.87;;;;;;;24.18;33.13;100633.41;5071955;28;20193;-63
2022/10/07 07:04:27;;;;;;;5.93;2.90;;;;;;;24.31;32.62;100635.75;5071779;28;20728;-65
2022/10/07 07:06:54;;;;;;;10.97;3.60;;;;;;;24.29;32.58;100631.63;5072006;28;20195;-63
2022/10/07 07:09:21;;;;;;;6.37;2.70;;;;;;;23.82;33.40;100634.13;5071756;28;20191;-65
2022/10/07 07:11:48;;;;;;;6.67;2.60;;;;;;;23.87;34.88;100628.75;5071983;28;20235;-63
2022/10/07 07:14:15;;;;;;;10.90;3.03;;;;;;;24.23;34.60;100628.06;5071437;28;20549;-63
2022/10/07 07:16:43;;;;;;;11.90;3.20;;;;;;;24.41;32.99;100629.56;5072020;28;20198;-64
2022/10/07 07:19:12;;;;;;;10.37;3.70;;;;;;;24.62;34.67;100610.47;5071926;28;20249;-63
2022/10/07 07:21:39;;;;;;;7.90;3.00;;;;;;;25.20;32.48;100620.38;5071529;28;20751;-64
2022/10/07 07:24:07;;;;;;;12.33;3.67;;;;;;;25.29;31.56;100582.63;5071583;28;20199;-63
2022/10/07 07:26:34;;;;;;;4.23;2.97;;;;;;;25.32;32.33;100620.19;5071756;28;20226;-66
2022/10/07 07:29:04;;;;;;;6.87;3.77;;;;;;;25.70;33.72;100614.34;5071623;28;20678;-66
2022/10/07 07:31:33;;;;;;;10.57;3.50;;;;;;;26.03;31.18;100611.19;5072332;28;20192;-65
2022/10/07 07:34:04;;;;;;;5.00;3.30;;;;;;;26.11;32.47;100614.22;5075774;28;20262;-66
2022/10/07 07:36:32;;;;;;;5.10;2.43;;;;;;;26.14;31.04;100612.88;5076792;28;20184;-67
2022/10/07 07:39:01;;;;;;;11.57;3.00;;;;;;;26.06;30.70;100606.06;5075274;28;20192;-66
2022/10/07 07:41:30;;;;;;;4.50;2.70;;;;;;;26.05;31.19;100600.88;5075427;28;20196;-66
2022/10/07 07:43:59;;;;;;;10.43;2.90;;;;;;;26.16;30.55;100605.22;5075534;28;20268;-67
2022/10/07 07:46:28;;;;;;;10.60;2.80;;;;;;;26.61;33.01;100599.81;5075359;28;20261;-67
2022/10/07 07:48:57;;;;;;;6.83;2.80;;;;;;;27.02;32.37;100596.75;5075257;28;20609;-67
2022/10/07 07:51:25;;;;;;;9.97;2.53;;;;;;;27.11;29.17;100603.25;5075803;28;20222;-68
2022/10/07 07:53:52;;;;;;;5.60;2.50;;;;;;;27.26;31.01;100610.63;5075308;28;20227;-68
2022/10/07 07:56:19;;;;;;;3.80;2.47;;;;;;;27.58;31.07;100608.31;5074914;28;20283;-69
2022/10/07 07:58:47;;;;;;;4.47;2.30;;;;;;;27.87;28.65;100612.84;5075122;28;20194;-68
2022/10/07 08:01:16;;;;;;;13.23;3.23;;;;;;;27.81;28.55;100603.03;5074876;28;20191;-68
2022/10/07 08:03:45;;;;;;;3.07;2.27;;;;;;;27.47;29.22;100601.25;5075335;28;20202;-73
2022/10/07 08:06:14;;;;;;;5.87;2.80;;;;;;;27.34;29.24;100599.13;5074934;28;20565;-69
2022/10/07 08:08:43;;;;;;;3.03;2.77;;;;;;;27.49;29.46;100604.53;5074792;28;20253;-70
2022/10/07 08:11:11;;;;;;;3.20;2.83;;;;;;;27.08;32.18;100543.00;5075602;28;20228;-69
2022/10/07 08:13:38;;;;;;;7.17;2.63;;;;;;;27.39;29.55;100596.38;5074902;28;20276;-70
2022/10/07 08:16:06;;;;;;;7.17;3.00;;;;;;;27.80;31.87;100595.06;5074991;28;20203;-68
2022/10/07 08:18:33;;;;;;;10.77;3.07;;;;;;;28.08;28.97;100594.38;5074997;28;20219;-67
2022/10/07 08:21:02;;;;;;;15.63;3.33;;;;;;;27.81;29.00;100591.28;5074967;28;20249;-67
2022/10/07 08:23:29;;;;;;;4.97;2.80;;;;;;;28.05;29.17;100586.78;5074601;28;20196;-68
2022/10/07 08:25:58;;;;;;;3.53;2.20;;;;;;;28.17;27.67;100590.75;5074911;28;20196;-67
2022/10/07 08:28:27;;;;;;;3.83;2.07;;;;;;;27.47;28.14;100590.34;5074437;28;20196;-66
2022/10/07 08:30:54;;;;;;;2.77;2.20;;;;;;;27.16;28.72;100588.81;5074821;28;20283;-66
2022/10/07 08:33:22;;;;;;;6.70;2.67;;;;;;;26.89;30.24;100571.94;5074679;28;20220;-68
2022/10/07 08:35:50;;;;;;;15.70;3.47;;;;;;;27.16;30.65;100577.88;5074496;28;20752;-67
2022/10/07 08:38:17;;;;;;;10.83;2.63;;;;;;;27.46;29.79;100575.06;5074697;28;20609;-67
2022/10/07 08:40:49;;;;;;;6.00;2.50;;;;;;;27.65;30.21;100546.03;5074789;28;20273;-67
2022/10/07 08:43:19;;;;;;;2.20;1.80;;;;;;;27.90;27.48;100567.75;5074206;28;20230;-67
2022/10/07 08:45:47;;;;;;;21.13;3.07;;;;;;;27.90;29.37;100573.22;5074288;28;20732;-67
2022/10/07 08:48:20;;;;;;;5.60;1.77;;;;;;;27.58;29.24;100565.44;5074102;28;20695;-66
2022/10/07 08:50:56;;;;;;;9.67;2.20;;;;;;;27.78;28.32;100564.50;5074599;28;20670;-68
2022/10/07 08:53:29;;;;;;;15.00;2.50;;;;;;;27.94;27.79;100555.16;5074422;28;20211;-68
2022/10/07 08:56:07;;;;;;;7.50;2.53;;;;;;;27.91;27.30;100558.44;5075277;28;20192;-70
2022/10/07 08:58:44;;;;;;;5.00;2.10;;;;;;;27.96;29.86;100545.56;5073917;28;20229;-67
2022/10/07 09:01:21;;;;;;;2.03;1.50;;;;;;;27.91;25.95;100558.44;5074423;28;20602;-67
2022/10/07 09:03:58;;;;;;;5.63;1.93;;;;;;;27.34;27.16;100558.19;5073807;28;20203;-68
2022/10/07 09:06:30;;;;;;;4.83;3.03;;;;;;;27.28;27.87;100548.41;5074486;28;20184;-68
2022/10/07 09:09:02;;;;;;;6.30;2.40;;;;;;;27.25;26.43;100544.31;5073837;28;20664;-68
2022/10/07 09:11:31;;;;;;;5.27;2.13;;;;;;;26.96;27.32;100539.75;5074339;28;20362;-68
2022/10/07 09:14:04;;;;;;;4.50;2.23;;;;;;;26.97;29.40;100536.75;5073918;28;20227;-68
2022/10/07 09:16:37;;;;;;;3.87;1.90;;;;;;;27.02;26.77;100533.19;5074031;28;20593;-68
2022/10/07 09:19:05;;;;;;;3.27;1.70;;;;;;;26.90;26.96;100535.44;5073616;28;20294;-68
2022/10/07 09:21:37;;;;;;;10.43;2.23;;;;;;;27.03;27.66;100518.47;5073534;28;20317;-67
2022/10/07 09:24:16;;;;;;;8.70;2.10;;;;;;;26.92;26.88;100520.41;5073386;28;20194;-68
2022/10/07 09:26:43;;;;;;;5.47;1.70;;;;;;;26.91;27.18;100517.97;5073508;28;20677;-68
2022/10/07 09:29:11;;;;;;;4.40;2.00;;;;;;;26.26;27.77;100510.72;5072583;28;20671;-66
2022/10/07 09:31:38;;;;;;;10.43;2.77;;;;;;;26.51;28.17;100510.69;5070243;28;20196;-67
2022/10/07 09:34:06;;;;;;;3.57;1.60;;;;;;;26.63;27.87;100502.22;5073154;28;20310;-67
2022/10/07 09:36:32;;;;;;;1.73;1.63;;;;;;;26.61;27.32;100501.66;5073197;28;20204;-67
2022/10/07 09:39:16;;;;;;;4.97;2.10;;;;;;;26.89;27.89;100490.13;5072622;28;20665;-67
2022/10/07 09:41:43;;;;;;;4.80;2.00;;;;;;;26.97;27.26;100492.28;5053630;28;20251;-67
2022/10/07 09:44:24;;;;;;;8.03;2.10;;;;;;;26.81;27.30;100479.81;5053031;28;20197;-68
2022/10/07 09:46:54;;;;;;;2.07;1.87;;;;;;;26.63;27.38;100483.97;5053012;28;20185;-67
2022/10/07 09:49:36;;;;;;;6.77;2.00;;;;;;;26.16;28.94;100479.91;5069007;28;20251;-67
2022/10/07 09:52:05;;;;;;;2.70;1.70;;;;;;;26.39;27.57;100471.16;5073391;28;20245;-66
2022/10/07 09:54:34;;;;;;;2.90;1.97;;;;;;;26.74;28.07;100469.19;5072136;28;20219;-68
2022/10/07 09:57:03;;;;;;;4.07;1.60;;;;;;;27.13;27.61;100466.56;5073213;28;20249;-66
2022/10/07 09:59:33;;;;;;;4.70;1.73;;;;;;;27.45;25.98;100464.25;5072838;28;20341;-66
2022/10/07 10:02:02;;;;;;;5.33;1.90;;;;;;;27.41;25.85;100460.44;5072594;28;20245;-65
2022/10/07 10:04:32;;;;;;;2.10;1.53;;;;;;;27.29;26.54;100451.78;5073476;28;20584;-65
2022/10/07 10:07:04;;;;;;;4.83;1.67;;;;;;;27.24;26.09;100460.81;5070317;28;20731;-68
2022/10/07 10:09:32;;;;;;;5.33;1.90;;;;;;;27.24;25.70;100454.56;5072251;28;20237;-68
2022/10/07 10:12:03;;;;;;;2.40;1.50;;;;;;;27.25;25.45;100445.25;5072641;28;20195;-67
2022/10/07 10:14:42;;;;;;;21.17;3.40;;;;;;;27.16;25.45;100436.00;5073159;28;20261;-67
2022/10/07 10:17:21;;;;;;;4.87;1.60;;;;;;;27.19;25.58;100435.47;5072503;28;20184;-67
2022/10/07 10:19:48;;;;;;;3.83;1.53;;;;;;;27.16;25.54;100427.81;5071909;28;20180;-67
2022/10/07 10:22:25;;;;;;;2.70;1.70;;;;;;;27.22;25.82;100424.81;5072482;28;20623;-67
2022/10/07 10:27:44;;;;;;;6.30;2.40;;;;;;;27.11;26.45;100419.69;5072908;28;20318;-68
2022/10/07 10:30:18;;;;;;;6.20;2.00;;;;;;;27.30;27.61;100410.56;5072019;28;20184;-69
2022/10/07 10:33:12;;;;;;;2.70;1.77;;;;;;;27.42;26.42;100397.38;5072810;28;20191;-66
2022/10/07 10:35:47;;;;;;;4.80;2.00;;;;;;;27.41;27.50;100401.22;5050592;28;20199;-66
2022/10/07 10:38:33;;;;;;;3.23;2.20;;;;;;;26.39;26.46;100397.59;5071613;28;20646;-66
2022/10/07 10:41:08;;;;;;;3.37;1.57;;;;;;;26.34;27.13;100389.44;5070856;28;20186;-65
2022/10/07 10:43:51;;;;;;;2.67;1.60;;;;;;;26.42;27.16;100378.78;5072479;28;20643;-64
2022/10/07 10:46:29;;;;;;;19.17;3.90;;;;;;;26.53;27.23;100379.53;5071383;28;20192;-66
2022/10/07 10:49:10;;;;;;;8.17;2.33;;;;;;;26.75;27.91;100363.69;5072224;28;20285;-68
2022/10/07 10:51:54;;;;;;;5.63;2.60;;;;;;;26.76;28.02;100359.84;5072023;28;20233;-67
2022/10/07 10:54:29;;;;;;;8.33;1.83;;;;;;;26.89;27.47;100351.06;5071910;28;20277;-67
2022/10/07 10:57:04;;;;;;;6.07;1.73;;;;;;;27.11;25.53;100356.94;5071901;28;20194;-72
2022/10/07 10:59:54;;;;;;;12.17;2.80;;;;;;;27.24;27.15;100350.88;5072425;28;20188;-71
2022/10/07 11:02:54;;;;;;;8.80;2.20;;;;;;;27.03;27.51;100343.88;5072264;28;20184;-70
2022/10/07 11:05:24;;;;;;;5.00;1.90;;;;;;;27.10;26.76;100347.09;5071614;28;20278;-70
2022/10/07 11:07:54;;;;;;;7.47;2.27;;;;;;;27.22;26.14;100347.59;5069786;28;20192;-72
2022/10/07 11:10:24;;;;;;;6.00;1.67;;;;;;;27.35;26.61;100341.47;5062970;28;20223;-69
2022/10/07 11:12:56;;;;;;;2.17;1.80;;;;;;;27.52;25.60;100348.16;5071447;28;20192;-69
2022/10/07 11:15:27;;;;;;;41.23;4.90;;;;;;;27.49;26.90;100339.75;5071931;28;20191;-68
2022/10/07 11:17:59;;;;;;;13.33;2.23;;;;;;;27.43;24.52;100343.59;5052068;28;20189;-69
2022/10/07 11:20:32;;;;;;;3.43;1.63;;;;;;;27.40;24.69;100339.53;5051604;28;20661;-68
2022/10/07 11:23:03;;;;;;;3.10;2.00;;;;;;;26.89;25.32;100331.97;5051484;28;20644;-69
2022/10/07 11:25:36;;;;;;;3.93;1.60;;;;;;;26.29;26.02;100335.78;5064285;28;20196;-70
2022/10/07 11:28:14;;;;;;;2.33;1.57;;;;;;;26.19;25.62;100332.28;5070865;28;20644;-71
2022/10/07 11:30:48;;;;;;;3.77;1.40;;;;;;;26.30;25.61;100325.69;5071272;28;20218;-67
2022/10/07 11:33:23;;;;;;;1.73;1.50;;;;;;;26.40;25.97;100315.56;5071741;28;20188;-69
2022/10/07 11:35:57;;;;;;;6.63;2.07;;;;;;;26.34;26.26;100311.22;5069708;28;20606;-69
2022/10/07 11:38:32;;;;;;;4.30;1.77;;;;;;;26.39;26.01;100303.06;5069037;28;20187;-67
2022/10/07 11:41:03;;;;;;;16.53;3.93;;;;;;;26.45;26.52;100309.28;5071039;28;20184;-71
2022/10/07 11:43:36;;;;;;;4.33;2.20;;;;;;;26.62;26.39;100307.06;5071555;28;20195;-68